createdAt,value
2023-04-21T00:02:01.188Z,10.10
2023-04-21T00:04:28.712Z,10.20
2023-04-21T00:06:57.245Z,10.20
2023-04-21T00:09:24.124Z,10.10
2023-04-21T00:11:50.917Z,10.20
2023-04-21T00:14:17.908Z,10.10
2023-04-21T00:16:44.869Z,10.20
2023-04-21T00:19:14.111Z,10.10
2023-04-21T00:21:41.020Z,10.10
2023-04-21T00:24:09.320Z,10.10
2023-04-21T00:26:36.113Z,10.10
2023-04-21T00:29:04.000Z,10.10
2023-04-21T00:31:30.957Z,10.10
2023-04-21T00:33:57.878Z,10.10
2023-04-21T00:36:24.983Z,10.10
2023-04-21T00:38:51.800Z,10.00
2023-04-21T00:41:19.930Z,10.00
2023-04-21T00:44:03.477Z,10.00
2023-04-21T00:46:30.534Z,10.00
2023-04-21T00:48:57.946Z,10.00
2023-04-21T00:51:25.733Z,10.00
2023-04-21T00:53:52.772Z,10.00
2023-04-21T00:56:22.252Z,10.00
2023-04-21T00:58:50.486Z,10.00
2023-04-21T01:01:17.505Z,10.00
2023-04-21T01:03:44.650Z,9.90
2023-04-21T01:06:11.729Z,9.90
2023-04-21T01:08:38.797Z,9.90
2023-04-21T01:11:10.825Z,9.90
2023-04-21T01:13:39.540Z,9.90
2023-04-21T01:16:08.270Z,9.90
2023-04-21T01:18:36.682Z,9.80
2023-04-21T01:21:04.258Z,9.80
2023-04-21T01:23:32.542Z,9.80
2023-04-21T01:25:59.451Z,9.80
2023-04-21T01:28:26.570Z,9.80
2023-04-21T01:30:53.913Z,9.70
2023-04-21T01:33:21.412Z,9.70
2023-04-21T01:35:48.468Z,9.60
2023-04-21T01:38:19.509Z,9.60
2023-04-21T01:40:50.226Z,9.60
2023-04-21T01:43:19.824Z,9.60
2023-04-21T01:45:47.585Z,9.60
2023-04-21T01:48:14.787Z,9.60
2023-04-21T01:50:41.912Z,9.60
2023-04-21T01:53:08.981Z,9.60
2023-04-21T01:55:35.922Z,9.60
2023-04-21T01:58:04.146Z,9.60
2023-04-21T02:00:30.905Z,9.60
2023-04-21T02:02:57.913Z,9.50
2023-04-21T02:05:24.906Z,9.60
2023-04-21T02:07:51.784Z,9.60
2023-04-21T02:10:18.665Z,9.60
2023-04-21T02:12:45.506Z,9.60
2023-04-21T02:15:13.685Z,9.60
2023-04-21T02:17:40.584Z,9.50
2023-04-21T02:20:09.032Z,9.50
2023-04-21T02:22:35.780Z,9.50
2023-04-21T02:25:02.567Z,9.50
2023-04-21T02:27:29.619Z,9.50
2023-04-21T02:29:56.406Z,9.50
2023-04-21T02:32:26.241Z,9.50
2023-04-21T02:34:53.469Z,9.40
2023-04-21T02:37:20.871Z,9.40
2023-04-21T02:39:47.908Z,9.40
2023-04-21T02:42:14.740Z,9.40
2023-04-21T02:44:42.923Z,9.40
2023-04-21T02:47:09.807Z,9.40
2023-04-21T02:49:42.122Z,9.40
2023-04-21T02:52:09.151Z,9.40
2023-04-21T02:54:36.026Z,9.40
2023-04-21T02:57:03.233Z,9.30
2023-04-21T02:59:30.138Z,9.30
2023-04-21T03:01:57.080Z,9.30
2023-04-21T03:04:25.450Z,9.30
2023-04-21T03:06:54.545Z,9.30
2023-04-21T03:09:21.457Z,9.30
2023-04-21T03:11:48.532Z,9.30
2023-04-21T03:14:15.448Z,9.30
2023-04-21T03:16:42.279Z,9.30
2023-04-21T03:19:09.113Z,9.30
2023-04-21T03:21:38.024Z,9.30
2023-04-21T03:24:07.333Z,9.30
2023-04-21T03:26:34.195Z,9.40
2023-04-21T03:29:01.335Z,9.40
2023-04-21T03:31:28.217Z,9.40
2023-04-21T03:33:55.075Z,9.40
2023-04-21T03:36:21.995Z,9.40
2023-04-21T03:38:48.842Z,9.40
2023-04-21T03:41:17.022Z,9.40
2023-04-21T03:43:43.858Z,9.50
2023-04-21T03:46:18.357Z,9.50
2023-04-21T03:48:45.901Z,9.50
2023-04-21T03:51:12.748Z,9.40
2023-04-21T03:53:39.550Z,9.50
2023-04-21T03:56:06.862Z,9.40
2023-04-21T03:58:35.564Z,9.50
2023-04-21T04:01:04.359Z,9.50
2023-04-21T04:03:31.419Z,9.40
2023-04-21T04:05:58.377Z,9.40
2023-04-21T04:08:25.359Z,9.40
2023-04-21T04:10:52.245Z,9.40
2023-04-21T04:13:19.413Z,9.40
2023-04-21T04:15:47.559Z,9.40
2023-04-21T04:18:14.465Z,9.30
2023-04-21T04:20:41.295Z,9.30
2023-04-21T04:23:08.791Z,9.30
2023-04-21T04:25:37.224Z,9.20
2023-04-21T04:28:05.298Z,9.20
2023-04-21T04:30:33.140Z,9.10
2023-04-21T04:33:01.526Z,9.00
2023-04-21T04:35:28.391Z,9.00
2023-04-21T04:37:56.872Z,9.00
2023-04-21T04:40:23.956Z,9.00
2023-04-21T04:42:51.467Z,8.90
2023-04-21T04:45:21.960Z,8.90
2023-04-21T04:47:49.621Z,8.90
2023-04-21T04:50:17.967Z,8.90
2023-04-21T04:52:46.945Z,8.80
2023-04-21T04:55:14.448Z,8.80
2023-04-21T04:57:41.280Z,8.80
2023-04-21T05:00:12.437Z,8.80
2023-04-21T05:02:39.645Z,8.80
2023-04-21T05:05:08.052Z,8.80
2023-04-21T05:07:36.515Z,8.90
2023-04-21T05:10:04.587Z,8.90
2023-04-21T05:12:32.265Z,8.90
2023-04-21T05:14:59.137Z,9.00
2023-04-21T05:17:26.220Z,9.00
2023-04-21T05:19:53.011Z,9.00
2023-04-21T05:22:19.824Z,9.00
2023-04-21T05:24:48.257Z,9.00
2023-04-21T05:27:15.356Z,9.00
2023-04-21T05:29:42.228Z,9.00
2023-04-21T05:32:09.358Z,9.00
2023-04-21T05:34:36.267Z,9.10
2023-04-21T05:37:03.253Z,9.10
2023-04-21T05:39:30.345Z,9.20
2023-04-21T05:41:58.618Z,9.20
2023-04-21T05:44:25.539Z,9.30
2023-04-21T05:46:52.476Z,9.40
2023-04-21T05:49:19.280Z,9.50
2023-04-21T05:51:46.274Z,9.60
2023-04-21T05:54:13.148Z,9.60
2023-04-21T05:56:39.881Z,9.70
2023-04-21T05:59:08.165Z,9.80
2023-04-21T06:01:35.844Z,9.90
2023-04-21T06:04:02.916Z,9.90
2023-04-21T06:06:30.473Z,10.00
2023-04-21T06:08:57.337Z,10.00
2023-04-21T06:11:24.329Z,10.20
2023-04-21T06:13:53.573Z,10.10
2023-04-21T06:16:21.904Z,10.20
2023-04-21T06:18:48.739Z,10.30
2023-04-21T06:21:15.980Z,10.30
2023-04-21T06:23:42.874Z,10.40
2023-04-21T06:26:09.728Z,10.40
2023-04-21T06:28:37.376Z,10.50
2023-04-21T06:31:06.944Z,10.50
2023-04-21T06:33:36.955Z,10.60
2023-04-21T06:36:04.332Z,10.70
2023-04-21T06:38:31.213Z,10.80
2023-04-21T06:40:58.365Z,10.90
2023-04-21T06:43:25.378Z,10.90
2023-04-21T06:45:52.216Z,11.00
2023-04-21T06:48:19.008Z,11.00
2023-04-21T06:50:47.146Z,11.00
2023-04-21T06:53:14.065Z,11.10
2023-04-21T06:55:41.699Z,11.10
2023-04-21T06:58:08.737Z,11.20
2023-04-21T07:00:35.673Z,11.20
2023-04-21T07:03:02.762Z,11.30
2023-04-21T07:05:29.799Z,11.40
2023-04-21T07:07:59.866Z,11.50
2023-04-21T07:10:27.163Z,11.60
2023-04-21T07:12:54.253Z,11.70
2023-04-21T07:15:21.303Z,11.90
2023-04-21T07:17:48.166Z,12.00
2023-04-21T07:20:15.152Z,12.20
2023-04-21T07:22:41.947Z,12.20
2023-04-21T07:25:12.442Z,12.20
2023-04-21T07:27:39.413Z,12.20
2023-04-21T07:30:07.685Z,12.20
2023-04-21T07:32:35.067Z,12.20
2023-04-21T07:35:03.012Z,12.20
2023-04-21T07:37:30.992Z,12.20
2023-04-21T07:39:58.298Z,12.30
2023-04-21T07:42:26.915Z,12.30
2023-04-21T07:44:54.830Z,12.40
2023-04-21T07:47:21.889Z,12.60
2023-04-21T07:49:48.765Z,12.70
2023-04-21T07:52:15.589Z,12.90
2023-04-21T07:54:42.924Z,13.00
2023-04-21T07:57:11.341Z,13.10
2023-04-21T07:59:39.652Z,13.10
2023-04-21T08:02:06.670Z,13.10
2023-04-21T08:04:33.858Z,13.10
2023-04-21T08:07:02.073Z,13.10
2023-04-21T08:09:29.201Z,13.10
2023-04-21T08:11:57.937Z,13.10
2023-04-21T08:14:26.858Z,13.00
2023-04-21T08:16:57.302Z,13.00
2023-04-21T08:19:24.610Z,13.10
2023-04-21T08:21:51.727Z,13.10
2023-04-21T08:24:19.054Z,13.20
2023-04-21T08:26:46.196Z,13.30
2023-04-21T08:29:14.222Z,13.50
2023-04-21T08:31:42.883Z,13.60
2023-04-21T08:34:11.657Z,13.70
2023-04-21T08:36:38.776Z,13.80
2023-04-21T08:39:05.787Z,13.80
2023-04-21T08:41:32.759Z,13.70
2023-04-21T08:43:59.627Z,13.70
2023-04-21T08:46:28.055Z,13.70
2023-04-21T08:48:55.358Z,13.70
2023-04-21T08:51:27.534Z,13.80
2023-04-21T08:53:55.598Z,13.80
2023-04-21T08:56:24.280Z,13.90
2023-04-21T08:58:51.081Z,14.00
2023-04-21T09:01:18.099Z,14.10
2023-04-21T09:03:45.201Z,14.20
2023-04-21T09:06:13.504Z,14.40
2023-04-21T09:08:52.328Z,14.60
2023-04-21T09:11:19.661Z,14.80
2023-04-21T09:13:46.456Z,15.00
2023-04-21T09:16:18.416Z,15.20
2023-04-21T09:18:45.487Z,15.30
2023-04-21T09:21:14.002Z,15.20
2023-04-21T09:23:44.075Z,15.30
2023-04-21T09:26:11.424Z,15.30
2023-04-21T09:28:42.190Z,15.20
2023-04-21T09:31:15.694Z,15.10
2023-04-21T09:33:57.628Z,15.10
2023-04-21T09:36:28.119Z,15.00
2023-04-21T09:41:32.164Z,14.70
2023-04-21T09:44:01.649Z,14.60
2023-04-21T09:46:31.780Z,14.50
2023-04-21T09:49:01.439Z,14.50
2023-04-21T09:51:49.129Z,14.40
2023-04-21T09:54:29.541Z,14.30
2023-04-21T09:56:59.835Z,14.30
2023-04-21T09:59:30.378Z,14.20
2023-04-21T10:01:59.376Z,14.30
2023-04-21T10:04:27.987Z,14.30
2023-04-21T10:06:56.315Z,14.30
2023-04-21T10:09:27.409Z,14.40
2023-04-21T10:11:55.499Z,14.40
2023-04-21T10:14:22.858Z,14.40
2023-04-21T10:16:56.801Z,14.40
2023-04-21T10:19:25.606Z,14.50
2023-04-21T10:21:55.749Z,14.50
2023-04-21T10:24:24.131Z,14.70
2023-04-21T10:26:54.055Z,14.80
2023-04-21T10:29:40.255Z,15.20
2023-04-21T10:32:11.192Z,15.50
2023-04-21T10:34:38.652Z,15.70
2023-04-21T10:37:16.463Z,15.90
2023-04-21T10:39:48.273Z,16.00
2023-04-21T10:42:29.424Z,16.20
2023-04-21T10:45:10.408Z,16.50
2023-04-21T10:47:45.376Z,16.80
2023-04-21T10:50:14.662Z,17.00
2023-04-21T10:52:44.761Z,17.20
2023-04-21T10:55:15.829Z,17.30
2023-04-21T10:57:45.223Z,17.40
2023-04-21T11:00:15.849Z,17.40
2023-04-21T11:02:44.865Z,17.40
2023-04-21T11:05:12.441Z,17.30
2023-04-21T11:07:39.451Z,17.30
2023-04-21T11:10:08.009Z,17.10
2023-04-21T11:12:38.564Z,16.90
2023-04-21T11:15:07.838Z,16.70
2023-04-21T11:17:35.233Z,16.50
2023-04-21T11:20:04.291Z,16.40
2023-04-21T11:22:31.242Z,16.30
2023-04-21T11:24:58.875Z,16.40
2023-04-21T11:27:27.506Z,16.30
2023-04-21T11:29:57.192Z,16.30
2023-04-21T11:32:24.622Z,16.40
2023-04-21T11:34:51.635Z,16.50
2023-04-21T11:37:24.630Z,16.60
2023-04-21T11:39:57.319Z,16.50
2023-04-21T11:42:24.192Z,16.50
2023-04-21T11:44:53.568Z,16.30
2023-04-21T11:47:24.935Z,16.30
2023-04-21T11:49:56.724Z,16.20
2023-04-21T11:52:28.563Z,16.10
2023-04-21T11:54:58.024Z,16.10
2023-04-21T11:57:25.551Z,16.10
2023-04-21T11:59:52.870Z,16.00
2023-04-21T12:02:27.740Z,16.00
2023-04-21T12:05:00.152Z,16.00
2023-04-21T12:07:28.905Z,15.90
2023-04-21T12:09:55.912Z,16.00
2023-04-21T12:12:24.243Z,16.00
2023-04-21T12:14:51.859Z,16.10
2023-04-21T12:17:19.321Z,16.30
2023-04-21T12:19:47.789Z,16.40
2023-04-21T12:22:16.098Z,16.40
2023-04-21T12:24:44.140Z,16.50
2023-04-21T12:27:11.910Z,16.50
2023-04-21T12:29:39.541Z,16.60
2023-04-21T12:32:06.885Z,16.60
2023-04-21T12:34:34.342Z,16.70
2023-04-21T12:37:02.809Z,16.80
2023-04-21T12:39:30.499Z,16.80
2023-04-21T12:41:57.903Z,16.90
2023-04-21T12:44:25.216Z,16.90
2023-04-21T12:46:52.182Z,17.20
2023-04-21T12:49:19.210Z,17.40
2023-04-21T12:51:46.155Z,17.60
2023-04-21T12:54:15.295Z,18.00
2023-04-21T12:56:42.844Z,18.20
2023-04-21T12:59:10.554Z,18.40
2023-04-21T13:01:37.906Z,18.40
2023-04-21T13:04:05.869Z,18.40
2023-04-21T13:06:34.408Z,18.60
2023-04-21T13:09:01.820Z,18.70
2023-04-21T13:11:30.221Z,18.90
2023-04-21T13:13:58.086Z,18.90
2023-04-21T13:16:25.498Z,18.80
2023-04-21T13:18:53.570Z,18.70
2023-04-21T13:21:20.564Z,18.70
2023-04-21T13:23:47.483Z,18.60
2023-04-21T13:26:14.945Z,18.70
2023-04-21T13:28:43.388Z,18.70
2023-04-21T13:31:10.550Z,18.70
2023-04-21T13:33:37.650Z,18.60
2023-04-21T13:36:05.008Z,18.70
2023-04-21T13:38:32.550Z,18.60
2023-04-21T13:41:00.238Z,18.60
2023-04-21T13:43:27.188Z,18.60
2023-04-21T13:45:55.547Z,18.50
2023-04-21T13:48:24.130Z,18.50
2023-04-21T13:50:51.915Z,18.50
2023-04-21T13:53:21.332Z,18.50
2023-04-21T13:55:48.669Z,18.60
2023-04-21T13:58:17.128Z,18.70
2023-04-21T14:00:44.228Z,18.70
2023-04-21T14:03:15.112Z,18.70
2023-04-21T14:05:42.640Z,18.80
2023-04-21T14:08:09.713Z,18.90
2023-04-21T14:10:36.780Z,18.90
2023-04-21T14:13:04.851Z,19.00
2023-04-21T14:15:32.355Z,19.00
2023-04-21T14:18:00.477Z,19.10
2023-04-21T14:20:29.494Z,19.20
2023-04-21T14:22:56.733Z,19.20
2023-04-21T14:25:24.144Z,19.20
2023-04-21T14:27:51.475Z,19.20
2023-04-21T14:30:18.357Z,19.30
2023-04-21T14:32:45.746Z,19.30
2023-04-21T14:35:13.037Z,19.40
2023-04-21T14:37:41.715Z,19.40
2023-04-21T14:40:09.758Z,19.40
2023-04-21T14:42:36.642Z,19.40
2023-04-21T14:45:04.023Z,19.50
2023-04-21T14:47:31.101Z,19.50
2023-04-21T14:49:58.155Z,19.60
2023-04-21T14:52:26.692Z,19.60
2023-04-21T14:54:54.972Z,19.70
2023-04-21T14:57:22.097Z,19.70
2023-04-21T14:59:50.265Z,19.70
2023-04-21T15:02:17.656Z,19.70
2023-04-21T15:04:44.812Z,19.70
2023-04-21T15:07:12.240Z,19.70
2023-04-21T15:09:39.274Z,19.70
2023-04-21T15:12:07.693Z,19.70
2023-04-21T15:14:34.511Z,19.70
2023-04-21T15:17:01.540Z,19.70
2023-04-21T15:19:28.468Z,19.80
2023-04-21T15:21:55.329Z,19.90
2023-04-21T15:24:22.269Z,19.80
2023-04-21T15:26:49.096Z,19.90
2023-04-21T15:29:17.445Z,19.90
2023-04-21T15:31:45.011Z,20.00
2023-04-21T15:34:12.061Z,20.10
2023-04-21T15:36:38.909Z,20.10
2023-04-21T15:39:05.818Z,20.10
2023-04-21T15:41:32.863Z,20.10
2023-04-21T15:44:00.416Z,20.10
2023-04-21T15:46:29.120Z,20.10
2023-04-21T15:48:55.973Z,20.00
2023-04-21T15:51:22.938Z,20.00
2023-04-21T15:53:50.815Z,19.90
2023-04-21T15:56:18.127Z,19.90
2023-04-21T15:58:44.998Z,19.80
2023-04-21T16:01:12.351Z,19.80
2023-04-21T16:03:40.799Z,19.80
2023-04-21T16:06:08.213Z,19.80
2023-04-21T16:08:35.353Z,19.80
2023-04-21T16:11:02.429Z,19.80
2023-04-21T16:13:29.509Z,19.90
2023-04-21T16:15:56.682Z,19.90
2023-04-21T16:18:23.878Z,20.00
2023-04-21T16:20:52.706Z,20.00
2023-04-21T16:23:19.754Z,20.00
2023-04-21T16:25:46.748Z,19.80
2023-04-21T16:28:13.573Z,20.00
2023-04-21T16:30:43.323Z,19.90
2023-04-21T16:33:14.392Z,19.90
2023-04-21T16:35:41.605Z,19.80
2023-04-21T16:38:09.905Z,19.80
2023-04-21T16:40:36.836Z,19.70
2023-04-21T16:43:03.742Z,19.70
2023-04-21T16:45:30.660Z,19.70
2023-04-21T16:47:58.030Z,19.70
2023-04-21T16:50:25.316Z,19.70
2023-04-21T16:52:52.303Z,19.70
2023-04-21T16:55:20.715Z,19.70
2023-04-21T16:57:47.968Z,19.60
2023-04-21T17:00:15.655Z,19.60
2023-04-21T17:02:42.810Z,19.60
2023-04-21T17:05:12.089Z,19.60
2023-04-21T17:07:39.659Z,19.50
2023-04-21T17:10:07.505Z,19.50
2023-04-21T17:12:35.817Z,19.50
2023-04-21T17:15:02.754Z,19.50
2023-04-21T17:17:38.671Z,19.50
2023-04-21T17:20:09.620Z,19.50
2023-04-21T17:22:36.913Z,19.50
2023-04-21T17:25:04.507Z,19.40
2023-04-21T17:27:31.488Z,19.40
2023-04-21T17:29:59.775Z,19.40
2023-04-21T17:32:27.560Z,19.40
2023-04-21T17:34:54.629Z,19.40
2023-04-21T17:37:21.720Z,19.30
2023-04-21T17:39:48.812Z,19.30
2023-04-21T17:42:15.753Z,19.30
2023-04-21T17:44:42.639Z,19.20
2023-04-21T17:47:11.136Z,19.20
2023-04-21T17:49:38.282Z,19.10
2023-04-21T17:52:05.784Z,19.10
2023-04-21T17:54:32.556Z,19.10
2023-04-21T17:56:59.361Z,19.10
2023-04-21T17:59:26.427Z,19.00
2023-04-21T18:01:53.314Z,19.00
2023-04-21T18:04:24.248Z,19.00
2023-04-21T18:06:51.875Z,19.00
2023-04-21T18:09:19.425Z,19.00
2023-04-21T18:11:46.375Z,18.90
2023-04-21T18:14:13.891Z,18.70
2023-04-21T18:16:40.680Z,18.60
2023-04-21T18:19:07.537Z,18.40
2023-04-21T18:21:35.813Z,18.10
2023-04-21T18:24:02.685Z,17.90
2023-04-21T18:26:29.557Z,17.70
2023-04-21T18:28:59.133Z,17.50
2023-04-21T18:31:26.597Z,17.40
2023-04-21T18:33:53.439Z,17.40
2023-04-21T18:36:20.342Z,17.30
2023-04-21T18:38:48.605Z,17.30
2023-04-21T18:41:15.998Z,17.20
2023-04-21T18:43:42.966Z,17.10
2023-04-21T18:46:09.847Z,17.10
2023-04-21T18:48:36.710Z,17.00
2023-04-21T18:51:03.882Z,17.00
2023-04-21T18:53:30.755Z,16.90
2023-04-21T18:56:00.188Z,16.80
2023-04-21T18:58:27.090Z,16.80
2023-04-21T19:00:54.642Z,16.80
2023-04-21T19:03:22.089Z,16.80
2023-04-21T19:05:49.137Z,16.70
2023-04-21T19:10:44.164Z,16.60
2023-04-21T19:13:14.361Z,16.60
2023-04-21T19:15:41.162Z,16.50
2023-04-21T19:18:08.119Z,16.50
2023-04-21T19:20:38.096Z,16.60
2023-04-21T19:23:05.641Z,16.50
2023-04-21T19:25:33.297Z,16.50
2023-04-21T19:28:01.225Z,16.50
2023-04-21T19:30:29.561Z,16.50
2023-04-21T19:32:57.342Z,16.50
2023-04-21T19:35:24.553Z,16.50
2023-04-21T19:37:51.478Z,16.40
2023-04-21T19:40:19.343Z,16.40
2023-04-21T19:42:46.643Z,16.40
2023-04-21T19:45:13.635Z,16.40
2023-04-21T19:47:41.942Z,16.40
2023-04-21T19:50:10.360Z,16.40
2023-04-21T19:52:37.347Z,16.40
2023-04-21T19:55:05.424Z,16.40
2023-04-21T19:57:33.150Z,16.40
2023-04-21T20:00:00.867Z,16.40
2023-04-21T20:02:29.529Z,16.40
2023-04-21T20:05:01.123Z,16.40
2023-04-21T20:07:30.011Z,16.40
2023-04-21T20:09:57.370Z,16.40
2023-04-21T20:12:25.916Z,16.30
2023-04-21T20:14:54.531Z,16.30
2023-04-21T20:17:23.197Z,16.30
2023-04-21T20:19:52.401Z,16.30
2023-04-21T20:22:22.589Z,16.20
2023-04-21T20:24:52.151Z,16.20
2023-04-21T20:27:20.681Z,16.10
2023-04-21T20:29:49.366Z,16.10
2023-04-21T20:32:16.431Z,16.00
2023-04-21T20:34:43.531Z,16.00
2023-04-21T20:37:10.846Z,15.80
2023-04-21T20:39:39.411Z,15.70
2023-04-21T20:42:13.121Z,15.60
2023-04-21T20:44:42.177Z,15.30
2023-04-21T20:47:09.609Z,15.20
2023-04-21T20:49:36.767Z,15.10
2023-04-21T20:52:03.927Z,15.10
2023-04-21T20:54:35.026Z,15.00
2023-04-21T20:57:03.473Z,15.00
2023-04-21T20:59:30.396Z,15.10
2023-04-21T21:01:57.305Z,15.10
2023-04-21T21:04:24.479Z,15.10
2023-04-21T21:06:51.431Z,15.10
2023-04-21T21:09:19.112Z,15.10
2023-04-21T21:11:46.140Z,15.10
2023-04-21T21:14:14.540Z,15.10
2023-04-21T21:16:41.736Z,15.10
2023-04-21T21:19:09.280Z,15.10
2023-04-21T21:21:36.488Z,15.10
2023-04-21T21:24:03.610Z,15.10
2023-04-21T21:26:30.643Z,15.00
2023-04-21T21:28:57.551Z,15.00
2023-04-21T21:31:25.972Z,15.00
2023-04-21T21:33:52.836Z,15.00
2023-04-21T21:36:19.881Z,14.90
2023-04-21T21:38:46.808Z,14.90
2023-04-21T21:41:14.002Z,14.80
2023-04-21T21:43:41.258Z,14.80
2023-04-21T21:46:08.877Z,14.80
2023-04-21T21:48:37.259Z,14.70
2023-04-21T21:51:06.034Z,14.70
2023-04-21T21:53:32.882Z,14.70
2023-04-21T21:55:59.862Z,14.70
2023-04-21T21:58:27.083Z,14.70
2023-04-21T22:00:54.447Z,14.60
2023-04-21T22:03:21.986Z,14.60
2023-04-21T22:05:50.276Z,14.50
2023-04-21T22:08:17.144Z,14.50
2023-04-21T22:10:44.431Z,14.50
2023-04-21T22:13:11.669Z,14.40
2023-04-21T22:15:38.887Z,14.30
2023-04-21T22:18:07.027Z,14.30
2023-04-21T22:20:34.022Z,14.20
2023-04-21T22:23:02.199Z,14.20
2023-04-21T22:25:29.089Z,14.10
2023-04-21T22:27:56.648Z,14.00
2023-04-21T22:30:24.013Z,14.00
2023-04-21T22:32:51.039Z,14.00
2023-04-21T22:35:18.066Z,13.90
2023-04-21T22:37:44.901Z,13.90
2023-04-21T22:40:13.471Z,13.90
2023-04-21T22:42:40.487Z,13.80
2023-04-21T22:45:08.426Z,13.70
2023-04-21T22:47:35.467Z,13.70
2023-04-21T22:50:02.359Z,13.70
2023-04-21T22:52:29.249Z,13.60
2023-04-21T22:54:56.122Z,13.60
2023-04-21T22:57:25.446Z,13.60
2023-04-21T22:59:52.329Z,13.60
2023-04-21T23:02:19.366Z,13.60
2023-04-21T23:04:46.380Z,13.60
2023-04-21T23:07:13.247Z,13.60
2023-04-21T23:09:40.359Z,13.50
2023-04-21T23:12:08.375Z,13.50
2023-04-21T23:14:37.044Z,13.40
2023-04-21T23:17:04.461Z,13.40
2023-04-21T23:19:31.343Z,13.40
2023-04-21T23:21:58.205Z,13.40
2023-04-21T23:24:25.093Z,13.40
2023-04-21T23:26:52.023Z,13.30
2023-04-21T23:29:18.852Z,13.30
2023-04-21T23:31:47.172Z,13.30
2023-04-21T23:34:15.244Z,13.30
2023-04-21T23:36:42.061Z,13.30
2023-04-21T23:39:09.785Z,13.30
2023-04-21T23:41:36.854Z,13.30
2023-04-21T23:44:03.682Z,13.30
2023-04-21T23:46:30.719Z,13.20
2023-04-21T23:48:59.016Z,13.20
2023-04-21T23:51:26.966Z,13.20
2023-04-21T23:53:53.986Z,13.20
2023-04-21T23:56:21.007Z,13.20
2023-04-21T23:58:47.849Z,13.10
